Aviation Digital Data Service (ADDS)

Output produced by TAFs form (0031 UTC 26 May 2016)
found at http://www.aviationweather.gov/adds/tafs/
 
KDEN 252353Z 07011KT 10SM FEW070 SCT140 BKN220 22/06 A2993 RMK AO2 SLP076 VIRGA MST QDS CB DSNT E-SE T02170056 10228 20189 56009
KDEN 252339Z 2600/2706 09013KT P6SM SCT080 SCT140 BKN200 
     FM260400 05008KT P6SM FEW080 SCT140 BKN180 
     FM261300 34008KT P6SM SCT060 BKN120 
     FM261700 04011KT P6SM VCSH BKN060 OVC120 
     FM262000 05010KT P6SM VCTS BKN050CB OVC090 
     TEMPO 2620/2624 VRB20G30KT -TSRA BKN050CB 
     FM270100 07010KT P6SM VCTS SCT040CB OVC070 
     TEMPO 2701/2704 -SHRA BKN040